Time;durP1;ratioP1;P1;durP2;ratioP2;P2;SDS_P1;SDS_P2;PMS_P1;PMS_P2;Temp;Humidity;BMP_temperature;BMP_pressure;BME280_temperature;BME280_humidity;BME280_pressure;Samples;Min_cycle;Max_cycle;Signal;HPM_P1;HPM_P2
2021/06/07 00:02:55;;;;;;;5.50;5.10;;;19.10;99.90;;;;;;6235393;28;20217;-63
2021/06/07 00:05:58;;;;;;;5.50;5.00;;;19.10;99.90;;;;;;6232875;28;20481;-62
2021/06/07 00:09:02;;;;;;;6.03;5.63;;;19.10;99.90;;;;;;6247200;28;20710;-63
2021/06/07 00:12:10;;;;;;;6.00;5.50;;;19.10;99.90;;;;;;6247520;28;20215;-63
2021/06/07 00:15:17;;;;;;;7.20;5.57;;;19.10;99.90;;;;;;6248216;28;20463;-63
2021/06/07 00:18:23;;;;;;;6.27;5.67;;;18.90;99.90;;;;;;6249038;28;20232;-63
2021/06/07 00:21:30;;;;;;;5.27;4.87;;;18.90;99.90;;;;;;6247549;28;20228;-63
2021/06/07 00:24:33;;;;;;;6.27;5.77;;;18.90;99.90;;;;;;6246942;28;20513;-63
2021/06/07 00:27:36;;;;;;;6.00;5.60;;;18.90;99.90;;;;;;6246792;28;20565;-63
2021/06/07 00:30:39;;;;;;;5.50;5.00;;;18.80;99.90;;;;;;6247419;28;20230;-63
2021/06/07 00:33:43;;;;;;;7.10;5.90;;;18.80;99.90;;;;;;6247157;28;20254;-63
2021/06/07 00:36:46;;;;;;;6.13;5.60;;;18.70;99.90;;;;;;6249041;28;20968;-63
2021/06/07 00:39:49;;;;;;;7.50;5.43;;;18.70;99.90;;;;;;6253645;28;20477;-63
2021/06/07 00:42:54;;;;;;;5.60;5.10;;;18.70;99.90;;;;;;6253667;28;20968;-63
2021/06/07 00:45:57;;;;;;;6.13;5.63;;;18.70;99.90;;;;;;6253745;28;20574;-63
2021/06/07 00:49:01;;;;;;;4.80;4.50;;;18.70;99.90;;;;;;6254095;28;20979;-62
2021/06/07 00:52:05;;;;;;;6.57;5.97;;;18.70;99.90;;;;;;6253731;28;20471;-63
2021/06/07 00:55:09;;;;;;;6.43;5.00;;;18.60;99.90;;;;;;6253995;28;20478;-63
2021/06/07 00:58:12;;;;;;;6.40;5.07;;;18.60;99.90;;;;;;6253472;28;20908;-63
2021/06/07 01:01:17;;;;;;;7.10;5.70;;;18.60;99.90;;;;;;6253404;28;20485;-63
2021/06/07 01:04:21;;;;;;;5.73;5.33;;;18.50;99.90;;;;;;6253490;28;20471;-63
2021/06/07 01:07:24;;;;;;;5.93;5.47;;;18.50;99.90;;;;;;6253371;28;20788;-63
2021/06/07 01:10:27;;;;;;;5.63;5.20;;;18.50;99.90;;;;;;6253764;28;20466;-63
2021/06/07 01:13:30;;;;;;;6.40;5.90;;;18.40;99.90;;;;;;6253110;28;20980;-63
2021/06/07 01:16:32;;;;;;;5.70;5.20;;;18.40;99.90;;;;;;6248491;28;20475;-63
2021/06/07 01:19:37;;;;;;;6.23;5.73;;;18.40;99.90;;;;;;6252709;28;20481;-63
2021/06/07 01:22:42;;;;;;;6.47;5.77;;;18.30;99.90;;;;;;6253044;28;20573;-63
2021/06/07 01:25:45;;;;;;;5.47;4.97;;;18.30;99.90;;;;;;6252603;28;20479;-63
2021/06/07 01:28:49;;;;;;;5.83;5.37;;;18.20;99.90;;;;;;6253057;28;20478;-63
2021/06/07 01:31:52;;;;;;;6.07;5.50;;;18.20;99.90;;;;;;6252703;28;20558;-63
2021/06/07 01:34:55;;;;;;;6.30;5.80;;;18.20;99.90;;;;;;6252780;28;20483;-63
2021/06/07 01:37:59;;;;;;;6.83;6.23;;;18.10;99.90;;;;;;6252673;28;20557;-63
2021/06/07 01:41:04;;;;;;;7.10;5.53;;;18.10;99.90;;;;;;6252632;28;20467;-63
2021/06/07 01:44:07;;;;;;;6.43;5.83;;;18.00;99.90;;;;;;6252223;28;20534;-63
2021/06/07 01:47:09;;;;;;;6.90;6.40;;;18.00;99.90;;;;;;6252558;28;20648;-63
2021/06/07 01:50:13;;;;;;;6.60;6.10;;;18.00;99.90;;;;;;6251302;28;20470;-62
2021/06/07 01:53:20;;;;;;;6.83;6.20;;;17.90;99.90;;;;;;6252449;28;20467;-62
2021/06/07 01:56:22;;;;;;;6.23;5.83;;;17.90;99.90;;;;;;6252221;28;20845;-63
2021/06/07 01:59:25;;;;;;;7.20;6.60;;;17.80;99.90;;;;;;6251983;28;20478;-62
2021/06/07 02:02:28;;;;;;;7.20;6.30;;;17.80;99.90;;;;;;6252017;28;20485;-63
2021/06/07 02:05:32;;;;;;;7.03;6.53;;;17.70;99.90;;;;;;6251985;28;20490;-63
2021/06/07 02:08:37;;;;;;;6.90;6.40;;;17.70;99.90;;;;;;6251851;28;20473;-63
2021/06/07 02:11:40;;;;;;;7.40;6.83;;;17.60;99.90;;;;;;6251407;28;20856;-63
2021/06/07 02:14:43;;;;;;;7.07;6.57;;;17.60;99.90;;;;;;6251777;28;20498;-63
2021/06/07 02:17:46;;;;;;;7.17;6.63;;;17.50;99.90;;;;;;6251354;28;20486;-63
2021/06/07 02:20:48;;;;;;;7.10;6.50;;;17.50;99.90;;;;;;6251584;28;20479;-63
2021/06/07 02:23:53;;;;;;;7.17;6.47;;;17.50;99.90;;;;;;6246718;28;20490;-63
2021/06/07 02:26:56;;;;;;;7.67;7.07;;;17.50;99.90;;;;;;6251527;28;20486;-63
2021/06/07 02:29:59;;;;;;;7.50;6.80;;;17.40;99.90;;;;;;6251601;28;20471;-63
2021/06/07 02:33:02;;;;;;;7.00;6.50;;;17.40;99.90;;;;;;6251595;28;20447;-63
2021/06/07 02:36:06;;;;;;;8.00;7.30;;;17.40;99.90;;;;;;6251124;28;20521;-63
2021/06/07 02:39:13;;;;;;;8.10;7.30;;;17.40;99.90;;;;;;6250943;28;20475;-63
2021/06/07 02:42:16;;;;;;;8.37;7.07;;;17.30;99.90;;;;;;6251667;28;20438;-63
2021/06/07 02:45:20;;;;;;;7.93;7.23;;;17.30;99.90;;;;;;6251161;28;20467;-62
2021/06/07 02:48:23;;;;;;;8.00;7.33;;;17.20;99.90;;;;;;6251295;28;20474;-62
2021/06/07 02:51:26;;;;;;;9.10;8.20;;;17.20;99.90;;;;;;6250743;28;20463;-62
2021/06/07 02:54:30;;;;;;;7.87;7.27;;;17.20;99.90;;;;;;6250812;28;20768;-62
2021/06/07 02:57:33;;;;;;;8.37;7.50;;;17.10;99.90;;;;;;6250569;28;20463;-62
2021/06/07 03:00:38;;;;;;;8.00;7.33;;;17.00;99.90;;;;;;6250118;28;20983;-63
2021/06/07 03:03:41;;;;;;;8.10;7.33;;;17.00;99.90;;;;;;6250342;28;20820;-62
2021/06/07 03:06:44;;;;;;;8.27;7.50;;;17.00;99.90;;;;;;6251005;28;20485;-62
2021/06/07 03:09:48;;;;;;;7.93;7.30;;;17.00;99.90;;;;;;6250608;28;20467;-62
2021/06/07 03:12:51;;;;;;;8.37;7.67;;;17.00;99.90;;;;;;6250365;28;20836;-62
2021/06/07 03:15:56;;;;;;;7.43;6.93;;;17.00;99.90;;;;;;6250169;28;20494;-62
2021/06/07 03:18:59;;;;;;;7.50;6.90;;;17.00;99.90;;;;;;6249981;28;20812;-62
2021/06/07 03:22:03;;;;;;;8.93;7.27;;;17.00;99.90;;;;;;6250628;28;20470;-62
2021/06/07 03:25:09;;;;;;;8.57;7.87;;;17.00;99.90;;;;;;6245776;28;20486;-62
2021/06/07 03:28:12;;;;;;;8.60;7.80;;;17.00;99.90;;;;;;6250184;28;20479;-62
2021/06/07 03:31:15;;;;;;;7.67;6.97;;;17.00;99.90;;;;;;6249958;28;20470;-62
2021/06/07 03:34:18;;;;;;;8.37;7.63;;;17.00;99.90;;;;;;6250224;28;20532;-63
2021/06/07 03:37:21;;;;;;;8.07;7.37;;;17.00;99.90;;;;;;6249833;28;20836;-62
2021/06/07 03:40:27;;;;;;;8.20;7.50;;;17.10;99.90;;;;;;6249909;28;20836;-62
2021/06/07 03:43:32;;;;;;;8.33;7.63;;;17.10;99.90;;;;;;6249713;28;20479;-62
2021/06/07 03:46:35;;;;;;;6.60;6.10;;;17.20;99.90;;;;;;6249755;28;20477;-62
2021/06/07 03:49:37;;;;;;;7.37;6.67;;;17.20;99.90;;;;;;6249710;28;20475;-63
2021/06/07 03:52:40;;;;;;;7.53;6.33;;;17.20;99.90;;;;;;6249730;28;20467;-63
2021/06/07 03:55:45;;;;;;;7.17;6.60;;;17.20;99.90;;;;;;6249512;28;20470;-62
2021/06/07 03:58:47;;;;;;;9.37;8.50;;;17.30;99.90;;;;;;6249442;28;20466;-62
2021/06/07 04:01:50;;;;;;;8.30;7.60;;;17.30;99.90;;;;;;6249417;28;20475;-62
2021/06/07 04:04:53;;;;;;;7.60;7.03;;;17.40;99.90;;;;;;6249116;28;20478;-62
2021/06/07 04:07:56;;;;;;;7.93;7.23;;;17.40;99.90;;;;;;6249636;28;20462;-60
2021/06/07 04:11:00;;;;;;;7.60;7.00;;;17.50;99.90;;;;;;6249786;28;20471;-59
2021/06/07 04:14:03;;;;;;;10.33;7.33;;;17.50;99.90;;;;;;6249164;28;20471;-62
2021/06/07 04:17:05;;;;;;;8.80;8.10;;;17.70;99.90;;;;;;6249242;28;20479;-63
2021/06/07 04:20:12;;;;;;;7.97;7.10;;;17.70;99.90;;;;;;6249107;28;20490;-62
2021/06/07 04:23:15;;;;;;;8.03;7.33;;;17.80;99.90;;;;;;6249103;28;20471;-63
2021/06/07 04:26:19;;;;;;;6.80;5.90;;;17.90;99.90;;;;;;6249555;28;20471;-62
2021/06/07 04:29:22;;;;;;;6.50;6.00;;;18.00;99.90;;;;;;6244723;28;20802;-62
2021/06/07 04:32:24;;;;;;;7.47;6.87;;;18.10;99.90;;;;;;6249135;28;20493;-63
2021/06/07 04:35:27;;;;;;;7.03;6.40;;;18.20;99.90;;;;;;6248974;28;20478;-63
2021/06/07 04:38:30;;;;;;;8.10;7.30;;;18.30;99.90;;;;;;6249206;28;20490;-63
2021/06/07 04:41:34;;;;;;;6.17;5.67;;;18.40;99.90;;;;;;6249497;28;20503;-64
2021/06/07 04:44:37;;;;;;;7.10;6.43;;;18.50;99.90;;;;;;6248779;28;20479;-63
2021/06/07 04:47:40;;;;;;;7.87;7.10;;;18.60;99.90;;;;;;6249155;28;20463;-63
2021/06/07 04:50:44;;;;;;;6.83;6.30;;;18.70;99.90;;;;;;6248797;28;20471;-63
2021/06/07 04:53:46;;;;;;;8.17;6.37;;;18.90;99.90;;;;;;6248942;28;20486;-62
2021/06/07 04:56:50;;;;;;;6.73;6.23;;;18.80;99.90;;;;;;6248882;28;20485;-63
2021/06/07 04:59:53;;;;;;;7.40;6.80;;;18.90;99.90;;;;;;6248800;28;20483;-63
2021/06/07 05:02:56;;;;;;;7.07;6.17;;;19.00;99.90;;;;;;6248649;28;20255;-64
2021/06/07 05:06:00;;;;;;;6.90;5.47;;;19.10;99.90;;;;;;6248563;28;20467;-64
2021/06/07 05:09:03;;;;;;;6.07;5.67;;;19.20;99.90;;;;;;6248920;28;20215;-62
2021/06/07 05:12:09;;;;;;;6.63;6.13;;;19.40;99.90;;;;;;6248931;28;20447;-63
2021/06/07 05:15:14;;;;;;;6.73;6.07;;;19.40;99.90;;;;;;6248947;28;20255;-63
2021/06/07 05:18:17;;;;;;;9.60;6.57;;;19.60;99.90;;;;;;6248865;28;20366;-62
2021/06/07 05:21:19;;;;;;;6.63;6.03;;;19.70;99.90;;;;;;6248585;28;20235;-63
2021/06/07 05:24:22;;;;;;;5.77;5.20;;;19.80;99.90;;;;;;6249352;28;20243;-62
2021/06/07 05:27:26;;;;;;;6.50;5.90;;;20.00;99.90;;;;;;6253160;28;20235;-63
2021/06/07 05:30:31;;;;;;;6.50;6.00;;;20.10;99.90;;;;;;6252663;28;20234;-63
2021/06/07 05:33:34;;;;;;;6.70;5.17;;;20.20;99.90;;;;;;6248159;28;20243;-63
2021/06/07 05:36:36;;;;;;;6.07;5.50;;;20.30;99.90;;;;;;6252692;28;20232;-64
2021/06/07 05:39:39;;;;;;;7.57;6.57;;;20.40;99.90;;;;;;6253026;28;20254;-63
2021/06/07 05:42:44;;;;;;;5.83;5.10;;;20.40;99.90;;;;;;6252524;28;20319;-63
2021/06/07 05:45:47;;;;;;;6.13;5.60;;;20.60;99.90;;;;;;6252683;28;20228;-63
2021/06/07 05:48:49;;;;;;;5.37;4.97;;;20.80;99.90;;;;;;6252502;28;20224;-63
2021/06/07 05:51:52;;;;;;;7.53;6.10;;;20.90;99.90;;;;;;6252234;28;20223;-63
2021/06/07 05:54:55;;;;;;;6.23;5.40;;;21.10;99.90;;;;;;6252246;28;20699;-63
2021/06/07 05:58:01;;;;;;;5.83;5.43;;;21.30;99.90;;;;;;6252385;28;20229;-63
2021/06/07 06:01:04;;;;;;;5.83;5.43;;;21.50;99.90;;;;;;6252471;28;20232;-63
2021/06/07 06:04:07;;;;;;;8.70;5.10;;;21.70;99.90;;;;;;6251781;28;20685;-63
2021/06/07 06:07:10;;;;;;;5.60;5.10;;;22.00;99.50;;;;;;6252291;28;20228;-63
2021/06/07 06:10:14;;;;;;;5.60;5.10;;;22.20;99.30;;;;;;6252004;28;20254;-60
2021/06/07 06:13:18;;;;;;;7.87;5.33;;;22.50;98.90;;;;;;6252237;28;20236;-61
2021/06/07 06:16:22;;;;;;;5.57;5.07;;;22.90;97.70;;;;;;6251478;28;20685;-61
2021/06/07 06:19:25;;;;;;;6.80;5.53;;;23.20;97.30;;;;;;6251626;28;20247;-60
2021/06/07 06:22:28;;;;;;;7.73;5.77;;;23.40;96.50;;;;;;6251573;28;20710;-63
2021/06/07 06:25:31;;;;;;;5.30;4.90;;;23.50;96.00;;;;;;6251875;28;20231;-63
2021/06/07 06:28:41;;;;;;;6.30;5.70;;;23.90;95.30;;;;;;6251483;28;20318;-64
2021/06/07 06:31:43;;;;;;;6.23;5.70;;;24.60;94.80;;;;;;6251501;28;20228;-64
2021/06/07 06:34:48;;;;;;;8.03;6.10;;;25.20;92.90;;;;;;6250416;28;20232;-64
2021/06/07 06:37:51;;;;;;;6.00;5.60;;;25.50;91.80;;;;;;6246151;28;20232;-65
2021/06/07 06:40:54;;;;;;;6.10;5.60;;;26.00;91.00;;;;;;6251278;28;20235;-64
2021/06/07 06:43:58;;;;;;;5.80;5.40;;;26.50;88.30;;;;;;6226509;28;20243;-61
2021/06/07 06:47:01;;;;;;;5.07;4.67;;;26.90;87.30;;;;;;6226974;28;20251;-61
2021/06/07 06:50:06;;;;;;;5.33;4.93;;;27.50;84.60;;;;;;6226210;28;20224;-61
2021/06/07 06:53:11;;;;;;;5.07;4.67;;;28.10;81.90;;;;;;6226280;28;20232;-60
2021/06/07 06:56:14;;;;;;;6.20;5.63;;;28.60;78.40;;;;;;6226171;28;20239;-60
2021/06/07 06:59:18;;;;;;;6.20;5.70;;;29.10;75.00;;;;;;6226287;28;20228;-60
2021/06/07 07:02:21;;;;;;;6.87;5.57;;;29.50;72.50;;;;;;6226268;28;20232;-60
2021/06/07 07:05:23;;;;;;;5.90;5.40;;;30.10;68.90;;;;;;6225905;28;20262;-62
2021/06/07 07:08:29;;;;;;;5.33;4.93;;;30.70;65.20;;;;;;6231093;28;20234;-60
2021/06/07 07:11:32;;;;;;;5.93;5.40;;;30.80;62.00;;;;;;6250898;28;20232;-60
2021/06/07 07:14:37;;;;;;;5.70;5.30;;;30.90;59.80;;;;;;6249946;28;20585;-61
2021/06/07 07:17:39;;;;;;;6.30;5.90;;;30.90;58.60;;;;;;6233638;28;20224;-65
2021/06/07 07:20:43;;;;;;;6.50;5.90;;;30.90;56.60;;;;;;6228173;28;20224;-61
2021/06/07 07:23:46;;;;;;;7.00;6.50;;;31.20;55.80;;;;;;6228395;28;20224;-64
2021/06/07 07:26:48;;;;;;;6.17;5.67;;;31.10;54.30;;;;;;6235916;28;20232;-64
2021/06/07 07:29:54;;;;;;;5.80;5.40;;;31.00;54.70;;;;;;6247036;28;20684;-64
2021/06/07 07:32:57;;;;;;;6.33;5.73;;;31.10;53.50;;;;;;6250203;28;20250;-63
2021/06/07 07:36:00;;;;;;;6.82;6.18;;;31.80;52.60;;;;;;6238068;28;20248;-63
2021/06/07 07:39:03;;;;;;;7.70;6.90;;;32.10;51.20;;;;;;6244229;28;20215;-64
2021/06/07 07:42:07;;;;;;;7.25;6.65;;;32.30;53.60;;;;;;6222355;28;20218;-64
2021/06/07 07:45:15;;;;;;;6.85;6.25;;;31.80;54.00;;;;;;6250192;28;20244;-63
2021/06/07 07:48:17;;;;;;;7.13;6.25;;;31.80;52.50;;;;;;6248746;28;20203;-63
2021/06/07 07:51:20;;;;;;;6.43;6.03;;;31.70;52.90;;;;;;6250020;28;20210;-64
2021/06/07 07:54:23;;;;;;;7.07;6.57;;;31.60;52.30;;;;;;6238537;28;20235;-63
2021/06/07 07:57:26;;;;;;;6.35;5.88;;;31.30;51.80;;;;;;6235918;28;20239;-64
2021/06/07 08:00:31;;;;;;;6.43;6.03;;;31.10;52.20;;;;;;6233212;28;20239;-63
2021/06/07 08:03:34;;;;;;;7.05;6.45;;;30.90;52.70;;;;;;6239519;28;20254;-62
2021/06/07 08:06:37;;;;;;;7.13;6.53;;;30.80;53.10;;;;;;6246464;28;20231;-66
2021/06/07 08:09:40;;;;;;;7.20;6.63;;;30.80;53.60;;;;;;6247409;28;20224;-65
2021/06/07 08:12:43;;;;;;;7.03;6.53;;;30.60;53.70;;;;;;6248461;28;20226;-66
2021/06/07 08:15:49;;;;;;;7.20;6.70;;;30.40;54.30;;;;;;6249067;28;20574;-65
2021/06/07 08:18:52;;;;;;;7.37;6.77;;;30.40;54.00;;;;;;6248769;28;20673;-65
2021/06/07 08:21:54;;;;;;;7.33;6.73;;;30.30;54.10;;;;;;6248718;28;20566;-65
2021/06/07 08:24:57;;;;;;;6.77;6.27;;;30.10;54.70;;;;;;6249021;28;20223;-66
2021/06/07 08:28:00;;;;;;;7.83;7.13;;;30.00;55.10;;;;;;6249220;28;20242;-65
2021/06/07 08:31:04;;;;;;;7.67;6.90;;;29.90;55.20;;;;;;6248723;28;20665;-66
2021/06/07 08:34:07;;;;;;;8.43;7.73;;;29.70;55.80;;;;;;6239989;28;20559;-65
2021/06/07 08:37:10;;;;;;;7.23;6.73;;;29.40;55.70;;;;;;6235823;28;20717;-64
2021/06/07 08:40:15;;;;;;;8.43;7.73;;;28.70;58.00;;;;;;6245273;28;20685;-64
2021/06/07 08:43:18;;;;;;;8.50;7.90;;;28.70;59.00;;;;;;6249148;28;20242;-64
2021/06/07 08:46:22;;;;;;;7.53;7.03;;;28.70;59.10;;;;;;6244132;28;20318;-66
2021/06/07 08:49:25;;;;;;;7.67;7.07;;;28.80;59.00;;;;;;6248909;28;20227;-63
2021/06/07 08:52:28;;;;;;;7.40;6.80;;;28.90;58.70;;;;;;6248546;28;20227;-64
2021/06/07 08:55:33;;;;;;;9.00;8.30;;;29.00;58.90;;;;;;6243105;28;20294;-66
2021/06/07 08:58:36;;;;;;;8.03;7.33;;;29.00;58.90;;;;;;6238628;28;20310;-67
2021/06/07 09:01:40;;;;;;;9.17;8.27;;;29.10;59.00;;;;;;6252780;28;20232;-63
2021/06/07 09:04:49;;;;;;;8.20;7.53;;;29.10;58.70;;;;;;6241874;28;20255;-63
2021/06/07 09:07:57;;;;;;;9.27;8.63;;;28.90;58.30;;;;;;6239869;28;20713;-65
2021/06/07 09:11:07;;;;;;;9.50;8.70;;;28.70;58.80;;;;;;6239055;28;20220;-64
2021/06/07 09:14:17;;;;;;;9.87;9.07;;;28.50;59.10;;;;;;6247641;28;20227;-65
2021/06/07 09:17:23;;;;;;;8.30;7.70;;;28.20;58.70;;;;;;6228241;28;20582;-65
2021/06/07 09:20:27;;;;;;;8.60;8.00;;;28.40;59.40;;;;;;6228298;28;20239;-64
2021/06/07 09:23:42;;;;;;;8.77;8.20;;;28.90;57.80;;;;;;6250220;28;20231;-67
2021/06/07 09:26:47;;;;;;;8.13;7.43;;;29.50;57.30;;;;;;6253166;28;20228;-66
2021/06/07 09:29:50;;;;;;;9.27;8.23;;;30.00;56.40;;;;;;6252453;28;20224;-65
2021/06/07 09:33:19;;;;;;;8.90;8.10;;;30.30;55.30;;;;;;6252956;28;20227;-65
2021/06/07 09:36:24;;;;;;;7.60;7.03;;;30.40;56.30;;;;;;6252359;28;20253;-64
2021/06/07 09:39:27;;;;;;;9.00;8.30;;;30.20;56.10;;;;;;6245524;28;20236;-65
2021/06/07 09:42:30;;;;;;;9.73;8.70;;;30.20;55.70;;;;;;6227754;28;20326;-65
2021/06/07 09:45:41;;;;;;;10.90;10.10;;;29.90;56.20;;;;;;6228203;28;20232;-66
2021/06/07 09:48:45;;;;;;;9.00;8.20;;;29.20;58.00;;;;;;6227447;28;20726;-63
2021/06/07 09:51:55;;;;;;;9.40;8.70;;;29.30;57.70;;;;;;6223279;28;20685;-65
2021/06/07 09:55:08;;;;;;;8.70;8.10;;;29.10;57.90;;;;;;6227636;28;20239;-62
2021/06/07 09:58:11;;;;;;;9.67;8.83;;;29.20;57.80;;;;;;6227959;28;20315;-61
2021/06/07 10:01:15;;;;;;;8.20;7.53;;;29.20;58.70;;;;;;6226895;28;20236;-60
2021/06/07 10:04:19;;;;;;;8.90;8.20;;;29.10;59.20;;;;;;6227354;28;20576;-59
2021/06/07 10:07:24;;;;;;;10.07;9.27;;;29.10;59.10;;;;;;6249977;28;20568;-62
2021/06/07 10:10:27;;;;;;;9.50;8.80;;;28.90;59.20;;;;;;6275708;28;20242;-62
2021/06/07 10:13:34;;;;;;;10.43;9.73;;;28.90;58.20;;;;;;6290443;28;20319;-61
2021/06/07 10:16:38;;;;;;;10.40;9.70;;;28.00;59.80;;;;;;6301609;28;20230;-60
2021/06/07 10:19:48;;;;;;;10.90;10.10;;;27.90;61.60;;;;;;6300950;28;20276;-61
2021/06/07 10:22:51;;;;;;;10.27;9.47;;;28.00;60.80;;;;;;6301299;28;20230;-63
2021/06/07 10:25:55;;;;;;;9.90;9.20;;;28.10;61.70;;;;;;6300800;28;20238;-61
2021/06/07 10:28:58;;;;;;;9.47;8.77;;;28.00;61.70;;;;;;6293435;28;20225;-61
2021/06/07 10:32:06;;;;;;;8.80;8.20;;;28.30;61.40;;;;;;6275784;28;20227;-61
2021/06/07 10:35:12;;;;;;;9.90;9.13;;;28.50;60.80;;;;;;6275875;28;20227;-61
2021/06/07 10:38:14;;;;;;;8.60;7.90;;;28.50;59.80;;;;;;6275606;28;20230;-61
2021/06/07 10:41:21;;;;;;;10.03;9.23;;;28.60;59.40;;;;;;6275857;28;20253;-61
2021/06/07 10:44:34;;;;;;;9.23;8.53;;;28.30;58.50;;;;;;6275224;28;20677;-62
2021/06/07 10:47:44;;;;;;;10.10;9.40;;;28.20;60.40;;;;;;6275889;28;20223;-60
2021/06/07 10:50:53;;;;;;;8.57;7.87;;;28.40;60.40;;;;;;6275525;28;20227;-60
2021/06/07 10:54:29;;;;;;;10.23;9.60;;;28.40;60.20;;;;;;6275221;28;20700;-61
2021/06/07 10:57:36;;;;;;;9.53;8.77;;;28.00;61.40;;;;;;6264656;28;20227;-61
2021/06/07 11:00:41;;;;;;;9.80;9.00;;;28.10;62.80;;;;;;6248571;28;20239;-62
2021/06/07 11:03:56;;;;;;;9.10;8.50;;;28.10;62.80;;;;;;6253514;28;20309;-61
2021/06/07 11:07:09;;;;;;;9.30;8.60;;;28.30;62.30;;;;;;6250656;28;20223;-61
2021/06/07 11:10:27;;;;;;;9.47;8.77;;;28.40;60.60;;;;;;6250282;28;20688;-62
2021/06/07 11:13:32;;;;;;;9.57;8.97;;;28.30;61.10;;;;;;6264348;28;20230;-62
2021/06/07 11:16:38;;;;;;;9.40;8.73;;;28.50;61.70;;;;;;6275031;28;20223;-61
2021/06/07 11:19:52;;;;;;;8.50;7.90;;;28.50;62.60;;;;;;6274632;28;20231;-62
2021/06/07 11:23:10;;;;;;;9.50;8.50;;;28.60;61.10;;;;;;6274787;28;20573;-62
2021/06/07 11:26:19;;;;;;;9.43;8.83;;;28.50;61.00;;;;;;6273997;28;20239;-61
2021/06/07 11:29:23;;;;;;;8.53;7.83;;;28.80;60.30;;;;;;6274539;28;20731;-61
2021/06/07 11:32:33;;;;;;;8.70;8.00;;;28.60;59.40;;;;;;6274317;28;20257;-61
2021/06/07 11:35:44;;;;;;;10.73;9.93;;;28.60;58.70;;;;;;6274557;28;20253;-61
2021/06/07 11:38:59;;;;;;;9.23;8.53;;;28.30;58.30;;;;;;6273969;28;20329;-62
2021/06/07 11:42:05;;;;;;;8.97;8.37;;;28.30;59.40;;;;;;6273118;28;20289;-62
2021/06/07 11:45:40;;;;;;;8.80;8.13;;;28.30;59.70;;;;;;6274128;28;20227;-62
2021/06/07 11:49:05;;;;;;;8.50;8.00;;;28.50;59.30;;;;;;6274689;28;20241;-62
2021/06/07 11:52:10;;;;;;;9.10;8.40;;;28.50;58.50;;;;;;6273950;28;20234;-61
2021/06/07 11:55:21;;;;;;;10.00;9.30;;;28.70;57.40;;;;;;6266078;28;20576;-62
2021/06/07 11:58:26;;;;;;;8.20;7.70;;;29.00;56.80;;;;;;6262645;28;20550;-62
2021/06/07 12:01:34;;;;;;;8.70;8.07;;;29.20;57.40;;;;;;6273696;28;20247;-61
2021/06/07 12:04:37;;;;;;;8.87;8.17;;;29.30;56.90;;;;;;6273913;28;20306;-62
2021/06/07 12:07:43;;;;;;;8.60;8.00;;;29.20;57.00;;;;;;6274363;28;20237;-61
2021/06/07 12:10:53;;;;;;;8.90;8.10;;;29.10;57.20;;;;;;6257298;28;20238;-61
2021/06/07 12:13:56;;;;;;;8.53;7.93;;;29.20;55.80;;;;;;6266118;28;20255;-62
2021/06/07 12:17:03;;;;;;;8.20;7.70;;;29.30;56.20;;;;;;6272350;28;20258;-62
2021/06/07 12:20:07;;;;;;;8.97;8.37;;;29.10;57.60;;;;;;6273431;28;20227;-61
2021/06/07 12:23:10;;;;;;;7.60;7.00;;;28.70;56.50;;;;;;6273270;28;20237;-62
2021/06/07 12:29:39;;;;;;;8.57;7.97;;;29.30;55.20;;;;;;6273111;28;20223;-61
2021/06/07 12:32:41;;;;;;;7.77;7.27;;;28.80;56.10;;;;;;6273843;28;20238;-61
2021/06/07 12:35:44;;;;;;;7.80;7.30;;;28.70;56.90;;;;;;6278328;28;20234;-65
2021/06/07 12:38:47;;;;;;;8.70;8.10;;;28.80;57.00;;;;;;6279092;28;20237;-62
2021/06/07 12:41:51;;;;;;;7.40;6.90;;;28.50;56.20;;;;;;6277263;28;20234;-62
2021/06/07 12:44:54;;;;;;;7.20;6.70;;;28.50;56.50;;;;;;6278570;28;20234;-62
2021/06/07 12:48:12;;;;;;;8.63;7.87;;;28.70;56.10;;;;;;6278304;28;20222;-61
2021/06/07 12:51:18;;;;;;;7.07;6.57;;;29.00;56.70;;;;;;6278577;28;20212;-63
2021/06/07 12:54:22;;;;;;;5.93;5.53;;;28.80;55.60;;;;;;6277550;28;20219;-61
2021/06/07 12:57:30;;;;;;;6.70;6.20;;;28.50;56.40;;;;;;6263805;28;20219;-62
2021/06/07 13:00:35;;;;;;;6.17;5.77;;;28.30;56.50;;;;;;6277627;28;20544;-61
2021/06/07 13:03:38;;;;;;;6.70;6.10;;;27.80;56.10;;;;;;6263844;28;20226;-61
2021/06/07 13:06:45;;;;;;;7.07;6.37;;;27.40;57.90;;;;;;6278250;28;20310;-62
2021/06/07 13:09:50;;;;;;;6.63;6.23;;;27.10;60.20;;;;;;6278188;28;20223;-63
2021/06/07 13:12:56;;;;;;;7.33;6.80;;;26.80;60.00;;;;;;6277991;28;20245;-62
2021/06/07 13:16:02;;;;;;;7.00;6.43;;;26.20;61.50;;;;;;6277778;28;20231;-63
2021/06/07 13:19:06;;;;;;;6.97;6.37;;;25.70;62.80;;;;;;6277788;28;20542;-62
2021/06/07 13:22:12;;;;;;;7.17;6.57;;;25.50;64.30;;;;;;6277259;28;20333;-62
2021/06/07 13:25:17;;;;;;;8.13;5.90;;;25.40;65.60;;;;;;6277877;28;20589;-63
2021/06/07 13:28:22;;;;;;;6.47;5.97;;;25.30;65.40;;;;;;6277228;28;20687;-63
2021/06/07 13:31:25;;;;;;;6.30;5.70;;;25.20;65.10;;;;;;6277710;28;20697;-64
2021/06/07 13:34:29;;;;;;;5.90;5.50;;;25.10;66.30;;;;;;6276779;28;20241;-63
2021/06/07 13:37:33;;;;;;;7.90;5.40;;;25.00;66.10;;;;;;6277022;28;20227;-63
2021/06/07 13:40:38;;;;;;;5.93;5.53;;;24.90;67.30;;;;;;6275517;28;20239;-62
2021/06/07 13:43:42;;;;;;;5.50;5.10;;;25.00;68.20;;;;;;6226343;28;20320;-63
2021/06/07 13:46:45;;;;;;;6.40;4.90;;;25.10;68.40;;;;;;6224716;28;20714;-61
2021/06/07 13:50:05;;;;;;;5.83;5.33;;;25.20;66.20;;;;;;6230823;28;20228;-62
2021/06/07 13:53:10;;;;;;;4.70;4.30;;;25.30;63.60;;;;;;6234579;28;20237;-62
2021/06/07 13:56:32;;;;;;;4.27;3.97;;;25.20;63.20;;;;;;6235799;28;20290;-61
2021/06/07 13:59:36;;;;;;;4.23;3.83;;;25.20;63.20;;;;;;6246706;28;20298;-61
2021/06/07 14:02:39;;;;;;;5.43;4.93;;;25.30;62.90;;;;;;6236459;28;20235;-61
2021/06/07 14:05:43;;;;;;;4.53;4.23;;;25.40;63.40;;;;;;6232735;28;20359;-61
2021/06/07 14:08:52;;;;;;;4.70;4.40;;;25.50;61.10;;;;;;6229572;28;20232;-61
2021/06/07 14:11:55;;;;;;;3.60;3.30;;;25.70;61.90;;;;;;6243971;28;20240;-61
2021/06/07 14:14:59;;;;;;;3.70;3.40;;;25.70;59.80;;;;;;6251567;28;20236;-61
2021/06/07 14:18:02;;;;;;;4.83;4.50;;;25.60;59.00;;;;;;6234514;28;20564;-61
2021/06/07 14:21:08;;;;;;;3.93;3.63;;;25.50;60.00;;;;;;6236600;28;20228;-61
2021/06/07 14:27:31;;;;;;;4.20;3.90;;;25.30;62.00;;;;;;6245224;28;20239;-63
2021/06/07 14:30:37;;;;;;;3.77;3.57;;;25.20;61.90;;;;;;6240769;28;20235;-61
2021/06/07 14:33:40;;;;;;;5.07;4.67;;;25.20;62.30;;;;;;6243195;28;20232;-62
2021/06/07 14:36:43;;;;;;;4.60;4.30;;;25.30;61.90;;;;;;6237838;28;20270;-62
2021/06/07 14:39:46;;;;;;;4.80;4.50;;;25.30;61.70;;;;;;6234423;28;20220;-61
2021/06/07 14:42:48;;;;;;;5.03;4.73;;;25.10;65.00;;;;;;6238757;28;20237;-62
2021/06/07 14:45:53;;;;;;;5.20;4.80;;;24.80;66.80;;;;;;6226265;28;20229;-62
2021/06/07 14:48:56;;;;;;;4.23;3.93;;;24.50;68.80;;;;;;6226508;28;20304;-62
2021/06/07 14:52:00;;;;;;;5.93;5.43;;;24.40;70.10;;;;;;6226229;28;20594;-62
2021/06/07 14:55:04;;;;;;;4.97;4.43;;;24.20;71.00;;;;;;6232203;28;20250;-62
2021/06/07 14:58:07;;;;;;;4.67;4.33;;;24.20;71.30;;;;;;6250207;28;20231;-62
2021/06/07 15:01:11;;;;;;;4.10;3.80;;;24.20;72.00;;;;;;6251213;28;20243;-61
2021/06/07 15:04:14;;;;;;;4.57;4.27;;;24.40;71.80;;;;;;6249885;28;20595;-61
2021/06/07 15:07:17;;;;;;;4.80;4.50;;;24.60;71.60;;;;;;6249662;28;20562;-61
2021/06/07 15:10:20;;;;;;;4.53;4.23;;;24.60;71.30;;;;;;6250063;28;20232;-61
2021/06/07 15:13:23;;;;;;;4.40;4.00;;;24.60;71.00;;;;;;6250696;28;20215;-61
2021/06/07 15:16:27;;;;;;;5.80;5.20;;;24.60;71.00;;;;;;6250067;28;20247;-60
2021/06/07 15:19:30;;;;;;;5.20;4.80;;;24.60;72.00;;;;;;6250225;28;20687;-61
2021/06/07 15:22:33;;;;;;;4.23;3.93;;;24.50;72.30;;;;;;6250029;28;20697;-61
2021/06/07 15:25:36;;;;;;;5.20;4.80;;;24.40;72.70;;;;;;6249898;28;20582;-62
2021/06/07 15:28:39;;;;;;;4.23;3.93;;;24.40;73.10;;;;;;6241047;28;20671;-62
2021/06/07 15:31:43;;;;;;;4.27;3.97;;;24.30;73.50;;;;;;6225546;28;20224;-62
2021/06/07 15:35:06;;;;;;;4.83;4.43;;;24.30;74.00;;;;;;6225392;28;20255;-62
2021/06/07 15:38:24;;;;;;;5.10;4.70;;;24.10;74.30;;;;;;6225253;28;20674;-62
2021/06/07 15:41:29;;;;;;;4.77;4.40;;;24.10;75.40;;;;;;6249036;28;20224;-61
2021/06/07 15:44:33;;;;;;;5.03;4.63;;;23.90;75.90;;;;;;6249452;28;20251;-61
2021/06/07 15:47:44;;;;;;;5.33;4.77;;;23.90;76.40;;;;;;6249600;28;20232;-61
2021/06/07 15:50:47;;;;;;;4.20;3.90;;;23.80;77.60;;;;;;6248202;28;20257;-61
2021/06/07 15:53:51;;;;;;;4.40;4.00;;;23.80;77.40;;;;;;6249381;28;20243;-61
2021/06/07 15:56:53;;;;;;;4.87;4.37;;;23.70;77.70;;;;;;6249112;28;20232;-61
2021/06/07 15:59:56;;;;;;;4.43;4.13;;;23.70;76.70;;;;;;6249445;28;20228;-61
2021/06/07 16:03:01;;;;;;;5.30;4.43;;;23.70;76.90;;;;;;6248983;28;20258;-61
2021/06/07 16:06:04;;;;;;;4.97;4.57;;;23.80;77.70;;;;;;6249045;28;20243;-62
2021/06/07 16:09:07;;;;;;;6.97;4.57;;;23.80;78.50;;;;;;6248394;28;20247;-61